Terminal Aerodrome Forecast
Issued by NWS

Home | Current Version | Previous Version | Text Only | Print | Product List | Glossary On
Versions: 1 2 3 4 5 6 7 8 9 10 11 12
000
FTUS46 KSTO 291100 RRA
TAFRBL
TAF
KRBL 291143Z 2912/3012 30005KT P6SM SCT250
     FM291500 VRB04KT P6SM SCT250
     FM292100 15007KT P6SM SCT250
     FM300600 VRB05KT P6SM SCT250
     FM300900 32007KT P6SM SCT250=

USA.gov is the U.S. government's official web portal to all federal, state and local government web resources and services.